Time;durP1;ratioP1;P1;durP2;ratioP2;P2;SDS_P1;SDS_P2;PMS_P1;PMS_P2;Temp;Humidity;BMP_temperature;BMP_pressure;BME280_temperature;BME280_humidity;BME280_pressure;Samples;Min_cycle;Max_cycle;Signal;HPM_P1;HPM_P2
2021/05/26 00:04:20;;;;;;;5.20;1.93;;;;;;;8.58;76.33;100340.13;3426939;85;31728;-88
2021/05/26 00:09:21;;;;;;;3.33;1.40;;;;;;;8.53;76.10;100336.32;3425364;85;98276;-88
2021/05/26 00:14:21;;;;;;;3.77;1.70;;;;;;;8.47;76.44;100330.92;3427310;86;31597;-87
2021/05/26 00:19:22;;;;;;;3.27;1.53;;;;;;;8.40;76.94;100330.00;3414507;85;98398;-88
2021/05/26 00:24:23;;;;;;;3.67;1.37;;;;;;;8.34;77.05;100341.84;3435333;84;31722;-88
2021/05/26 00:29:24;;;;;;;4.60;1.60;;;;;;;8.30;77.05;100337.45;3429403;84;98486;-87
2021/05/26 00:34:25;;;;;;;5.18;1.72;;;;;;;8.23;77.49;100338.10;3441860;84;31451;-87
2021/05/26 00:39:25;;;;;;;3.63;1.37;;;;;;;8.17;77.45;100335.41;3426306;84;98587;-88
2021/05/26 00:44:26;;;;;;;3.30;1.70;;;;;;;8.14;77.98;100333.98;3430863;84;35444;-87
2021/05/26 00:49:27;;;;;;;4.97;1.80;;;;;;;8.07;77.88;100326.41;3437723;84;98146;-87
2021/05/26 00:54:28;;;;;;;8.20;2.00;;;;;;;8.02;78.32;100314.96;3437681;84;98364;-88
2021/05/26 00:59:28;;;;;;;4.60;1.97;;;;;;;7.92;78.41;100316.31;3493333;83;34777;-88
2021/05/26 01:04:30;;;;;;;4.87;1.70;;;;;;;7.92;78.51;100325.13;3480061;83;98892;-87
2021/05/26 01:09:31;;;;;;;3.47;1.60;;;;;;;7.86;78.98;100329.31;3444915;84;34930;-88
2021/05/26 01:14:32;;;;;;;5.73;1.90;;;;;;;7.82;79.06;100316.12;3428147;84;98633;-88
2021/05/26 01:19:33;;;;;;;3.65;1.82;;;;;;;7.76;79.55;100327.96;3438086;84;34838;-88
2021/05/26 01:24:34;;;;;;;3.93;1.93;;;;;;;7.72;80.26;100330.39;3432381;84;98646;-88
2021/05/26 01:29:35;;;;;;;6.28;1.95;;;;;;;7.67;80.17;100327.93;3442864;84;34077;-87
2021/05/26 01:34:36;;;;;;;6.23;1.97;;;;;;;7.63;80.55;100325.72;3432897;84;98581;-87
2021/05/26 01:39:37;;;;;;;4.23;2.00;;;;;;;7.61;80.58;100324.70;3440868;84;32581;-88
2021/05/26 01:44:37;;;;;;;4.90;2.43;;;;;;;7.57;80.80;100321.65;3436862;84;98706;-86
2021/05/26 01:49:38;;;;;;;5.87;1.83;;;;;;;7.54;81.05;100322.38;3441391;84;32995;-88
2021/05/26 01:54:39;;;;;;;6.58;2.10;;;;;;;7.50;81.42;100331.09;3429647;83;98825;-87
2021/05/26 01:59:41;;;;;;;4.80;1.93;;;;;;;7.48;81.58;100325.19;3436418;84;32917;-88
2021/05/26 02:04:41;;;;;;;5.97;2.30;;;;;;;7.46;82.00;100328.28;3442454;84;98873;-87
2021/05/26 02:09:43;;;;;;;4.80;2.35;;;;;;;7.43;82.17;100327.64;3476316;83;32917;-88
2021/05/26 02:14:44;;;;;;;4.87;2.35;;;;;;;7.40;82.19;100329.72;3450394;82;98630;-87
2021/05/26 02:19:45;;;;;;;5.03;2.30;;;;;;;7.39;82.42;100340.45;3428464;84;26242;-86
2021/05/26 02:24:47;;;;;;;5.70;2.72;;;;;;;7.36;83.19;100339.02;3437588;84;98591;-87
2021/05/26 02:29:47;;;;;;;5.90;2.43;;;;;;;7.32;83.07;100341.64;3425655;84;25821;-88
2021/05/26 02:34:48;;;;;;;6.17;2.60;;;;;;;7.29;83.02;100343.74;3424367;84;98858;-89
2021/05/26 02:39:49;;;;;;;7.53;2.80;;;;;;;7.26;83.71;100343.08;3442976;84;26433;-86
2021/05/26 02:44:49;;;;;;;5.17;2.50;;;;;;;7.25;83.45;100350.30;3423147;84;98748;-87
2021/05/26 02:49:50;;;;;;;5.27;2.53;;;;;;;7.25;83.43;100351.66;3444884;84;26455;-87
2021/05/26 02:54:51;;;;;;;5.45;2.65;;;;;;;7.23;83.58;100349.84;3429492;84;98875;-87
2021/05/26 02:59:52;;;;;;;4.87;2.37;;;;;;;7.20;83.62;100357.41;3429894;84;26422;-87
2021/05/26 03:04:52;;;;;;;5.63;2.50;;;;;;;7.17;84.04;100362.22;3424323;84;98975;-86
2021/05/26 03:09:53;;;;;;;4.83;2.37;;;;;;;7.14;84.57;100362.94;3442091;84;33591;-87
2021/05/26 03:14:54;;;;;;;5.07;2.30;;;;;;;7.12;84.30;100365.22;3430180;84;98693;-87
2021/05/26 03:19:56;;;;;;;6.40;2.43;;;;;;;7.12;84.22;100369.33;3428424;84;33405;-87
2021/05/26 03:24:56;;;;;;;4.70;2.30;;;;;;;7.15;84.65;100372.73;3431590;84;102096;-87
2021/05/26 03:29:57;;;;;;;5.47;2.40;;;;;;;7.15;84.94;100376.25;3439924;84;33218;-87
2021/05/26 03:34:58;;;;;;;4.87;2.52;;;;;;;7.15;84.53;100374.88;3425992;84;98778;-87
2021/05/26 03:39:59;;;;;;;8.10;2.60;;;;;;;7.20;84.93;100375.20;3432712;84;33318;-87
2021/05/26 03:45:00;;;;;;;4.83;1.87;;;;;;;7.24;84.88;100376.05;3430912;84;98967;-87
2021/05/26 03:50:02;;;;;;;4.63;2.13;;;;;;;7.28;85.30;100372.27;3431900;84;33744;-87
2021/05/26 03:55:04;;;;;;;5.80;2.27;;;;;;;7.33;84.92;100374.73;3434281;84;98668;-86
2021/05/26 04:00:09;;;;;;;4.60;1.97;;;;;;;7.40;84.82;100374.08;3442343;84;33924;-89
2021/05/26 04:05:11;;;;;;;3.50;2.00;;;;;;;7.48;84.93;100370.38;3405697;84;98909;-87
2021/05/26 04:10:12;;;;;;;3.07;1.80;;;;;;;7.58;85.19;100373.33;3432840;84;26376;-86
2021/05/26 04:15:14;;;;;;;3.87;2.15;;;;;;;7.71;85.12;100369.33;3432179;84;98740;-89
2021/05/26 04:20:15;;;;;;;4.67;1.87;;;;;;;7.88;85.20;100367.53;3435569;84;25748;-87
2021/05/26 04:25:16;;;;;;;5.13;2.13;;;;;;;8.06;84.99;100378.27;3437123;84;99041;-86
2021/05/26 04:30:18;;;;;;;3.70;1.97;;;;;;;8.24;84.66;100373.95;3433701;84;33371;-89
2021/05/26 04:35:18;;;;;;;6.87;2.00;;;;;;;8.39;84.22;100375.81;3432562;84;98560;-87
2021/05/26 04:40:19;;;;;;;3.73;1.80;;;;;;;8.52;83.78;100377.82;3450202;84;33267;-88
2021/05/26 04:45:20;;;;;;;4.05;1.80;;;;;;;8.62;83.61;100369.77;3426806;83;98888;-87
2021/05/26 04:50:21;;;;;;;4.23;1.90;;;;;;;8.71;83.24;100366.78;3429649;84;33425;-88
2021/05/26 04:55:22;;;;;;;5.03;1.80;;;;;;;8.82;82.87;100367.76;3432673;84;98686;-87
2021/05/26 05:00:24;;;;;;;6.03;1.70;;;;;;;8.91;82.76;100367.75;3436730;84;33263;-87
2021/05/26 05:05:31;;;;;;;4.53;1.40;;;;;;;8.99;82.43;100363.95;3436748;84;99029;-89
2021/05/26 05:10:33;;;;;;;5.20;1.57;;;;;;;9.07;82.19;100371.15;3436943;84;26524;-87
2021/05/26 05:15:34;;;;;;;3.03;1.50;;;;;;;9.17;81.97;100382.08;3426647;84;98730;-87
2021/05/26 05:20:34;;;;;;;4.30;2.00;;;;;;;9.27;81.80;100378.71;3432996;84;33419;-87
2021/05/26 05:25:35;;;;;;;5.77;1.77;;;;;;;9.36;81.71;100375.10;3421206;84;98922;-88
2021/05/26 05:30:37;;;;;;;4.37;1.70;;;;;;;9.50;81.27;100369.83;3411499;84;33288;-89
2021/05/26 05:35:37;;;;;;;4.77;1.73;;;;;;;9.66;81.09;100362.98;3413826;84;98778;-88
2021/05/26 05:40:38;;;;;;;3.53;1.60;;;;;;;9.88;80.90;100353.07;3408448;84;33266;-88
2021/05/26 05:45:39;;;;;;;2.90;1.50;;;;;;;10.09;80.25;100361.61;3408414;84;98838;-90
2021/05/26 05:50:40;;;;;;;5.43;1.57;;;;;;;10.23;79.59;100357.06;3420390;84;33227;-91
2021/05/26 05:55:41;;;;;;;5.80;1.70;;;;;;;10.41;79.07;100360.02;3412452;84;99058;-90
2021/05/26 06:00:41;;;;;;;5.53;1.27;;;;;;;10.53;78.60;100352.86;3422636;84;33658;-90
2021/05/26 06:05:42;;;;;;;10.73;1.80;;;;;;;10.68;78.04;100355.96;3413535;84;98982;-88
2021/05/26 06:10:43;;;;;;;6.03;1.50;;;;;;;10.77;77.60;100357.22;3421095;84;32210;-88
2021/05/26 06:15:44;;;;;;;6.50;1.37;;;;;;;10.92;77.33;100349.30;3412438;84;99118;-88
2021/05/26 06:20:45;;;;;;;4.57;1.70;;;;;;;11.04;76.29;100352.33;3426402;84;32206;-89
2021/05/26 06:25:46;;;;;;;5.43;1.60;;;;;;;11.15;76.29;100345.73;3421976;84;98942;-89
2021/05/26 06:30:47;;;;;;;4.13;1.30;;;;;;;11.32;75.76;100345.64;3438157;84;32696;-86
2021/05/26 06:35:47;;;;;;;3.87;1.50;;;;;;;11.47;75.20;100341.23;3429821;84;99150;-80
2021/05/26 06:40:48;;;;;;;5.90;1.67;;;;;;;11.74;74.91;100343.17;3445850;84;31746;-85
2021/05/26 06:45:49;;;;;;;4.90;1.60;;;;;;;12.16;73.43;100341.37;3432044;84;99178;-83
2021/05/26 06:50:51;;;;;;;3.37;1.60;;;;;;;12.50;72.65;100341.86;3439609;84;26714;-83
2021/05/26 06:55:53;;;;;;;2.47;1.15;;;;;;;12.95;71.14;100335.00;3430803;84;99167;-88
2021/05/26 07:00:54;;;;;;;2.27;1.50;;;;;;;13.91;68.31;100307.38;3441985;84;31321;-84
2021/05/26 07:05:54;;;;;;;5.63;1.80;;;;;;;13.91;68.31;100307.38;3430597;84;99180;-85
2021/05/26 07:10:55;;;;;;;5.33;1.83;;;;;;;14.20;67.00;100319.90;3432798;84;25910;-85
2021/05/26 07:15:56;;;;;;;6.67;2.20;;;;;;;14.48;66.56;100327.45;3434554;84;98786;-85
2021/05/26 07:20:57;;;;;;;6.33;1.60;;;;;;;14.87;66.21;100330.73;3437854;84;35438;-84
2021/05/26 07:25:57;;;;;;;4.87;1.70;;;;;;;15.25;65.76;100337.92;3468328;82;99238;-91
2021/05/26 07:30:58;;;;;;;3.24;1.50;;;;;;;15.36;64.03;100328.93;3409397;85;35305;-87
2021/05/26 07:35:59;;;;;;;2.27;1.40;;;;;;;15.33;63.52;100336.70;3443797;84;99127;-86
2021/05/26 07:41:00;;;;;;;5.93;1.47;;;;;;;15.25;62.48;100332.37;3474989;83;32046;-88
2021/05/26 07:46:03;;;;;;;4.45;1.50;;;;;;;15.29;62.71;100322.63;3443156;84;99213;-88
2021/05/26 07:51:05;;;;;;;3.72;1.30;;;;;;;15.45;62.39;100321.52;3440634;84;34879;-87
2021/05/26 07:56:06;;;;;;;6.20;1.47;;;;;;;15.43;59.78;100319.15;3430128;84;99328;-87
2021/05/26 08:01:07;;;;;;;5.10;1.62;;;;;;;15.54;60.62;100316.28;3472633;83;32971;-83
2021/05/26 08:06:07;;;;;;;3.52;1.75;;;;;;;15.59;60.66;100310.28;3446999;84;99148;-87
2021/05/26 08:11:08;;;;;;;4.05;1.50;;;;;;;15.72;59.04;100305.76;3439325;84;32974;-85
2021/05/26 08:16:10;;;;;;;6.67;2.10;;;;;;;16.13;58.21;100309.98;3433195;84;99222;-85
2021/05/26 08:21:11;;;;;;;4.03;1.80;;;;;;;16.35;56.59;100307.10;3443895;84;28624;-85
2021/05/26 08:26:16;;;;;;;3.15;1.65;;;;;;;16.68;56.05;100297.91;3428994;84;99210;-88
2021/05/26 08:31:17;;;;;;;3.92;1.60;;;;;;;16.73;54.50;100318.27;3421862;84;34856;-87
2021/05/26 08:36:17;;;;;;;3.72;1.40;;;;;;;16.90;55.47;100313.65;3419369;84;99387;-84
2021/05/26 08:41:21;;;;;;;3.55;1.60;;;;;;;17.01;53.89;100313.64;3423387;84;35068;-87
2021/05/26 08:46:22;;;;;;;5.85;1.40;;;;;;;17.02;53.73;100315.83;3427877;83;99195;-86
2021/05/26 08:51:24;;;;;;;4.55;1.85;;;;;;;17.15;53.63;100300.09;3423923;84;34954;-87
2021/05/26 08:56:25;;;;;;;4.55;1.40;;;;;;;17.19;53.23;100303.02;3416759;84;98954;-87
2021/05/26 09:01:26;;;;;;;6.40;1.70;;;;;;;17.02;53.43;100320.80;3443387;83;35879;-87
2021/05/26 09:06:42;;;;;;;2.25;1.22;;;;;;;16.84;53.55;100316.11;3433009;83;99408;-87
2021/05/26 09:11:33;;;;;;;3.83;1.50;;;;;;;16.64;54.32;100324.19;3436076;84;35462;-88
2021/05/26 09:16:34;;;;;;;4.03;1.52;;;;;;;16.32;53.44;100307.95;3441612;84;99290;-85
2021/05/26 09:21:47;;;;;;;6.75;1.57;;;;;;;16.21;53.90;100309.30;3438672;84;34779;-86
2021/05/26 09:26:52;;;;;;;4.50;1.40;;;;;;;16.23;53.61;100302.13;3432961;84;99079;-88
2021/05/26 09:32:10;;;;;;;8.50;1.70;;;;;;;16.69;53.26;100299.50;3462949;83;25791;-87
2021/05/26 09:37:18;;;;;;;4.78;1.42;;;;;;;17.22;51.81;100296.59;3445137;83;99007;-80
2021/05/26 09:42:36;;;;;;;5.72;1.30;;;;;;;17.29;50.85;100299.85;3423342;84;35239;-84
2021/05/26 09:47:50;;;;;;;5.47;1.62;;;;;;;17.60;50.53;100298.52;3397881;84;99363;-87
2021/05/26 09:53:08;;;;;;;1.92;1.10;;;;;;;17.81;50.35;100298.86;3432359;84;34915;-86
2021/05/26 09:58:12;;;;;;;2.98;1.20;;;;;;;18.15;49.09;100291.59;3432239;84;98855;-83
2021/05/26 10:03:14;;;;;;;8.43;1.20;;;;;;;18.49;49.03;100292.83;3443050;84;34830;-90
2021/05/26 10:08:16;;;;;;;4.50;1.25;;;;;;;18.71;49.44;100279.95;3435193;84;98596;-86
2021/05/26 10:13:20;;;;;;;10.50;2.42;;;;;;;18.86;47.95;100264.42;3443083;84;34810;-86
2021/05/26 10:18:23;;;;;;;7.05;1.52;;;;;;;18.90;48.07;100264.33;3433727;84;99147;-90
2021/05/26 10:23:24;;;;;;;5.33;1.98;;;;;;;18.97;45.73;100257.20;3439137;84;34876;-88
2021/05/26 10:28:30;;;;;;;3.45;1.15;;;;;;;19.05;45.28;100251.00;3416534;84;98965;-87
2021/05/26 10:33:45;;;;;;;7.03;1.40;;;;;;;19.13;45.68;100252.37;3425995;84;25776;-88
2021/05/26 10:39:02;;;;;;;7.47;1.57;;;;;;;19.05;45.17;100245.42;3412432;84;98972;-86
2021/05/26 10:44:06;;;;;;;5.05;1.40;;;;;;;19.20;45.32;100241.64;3409962;84;36094;-87
2021/05/26 10:49:09;;;;;;;3.77;1.25;;;;;;;19.22;45.69;100239.21;3412996;84;98692;-85
2021/05/26 10:54:10;;;;;;;6.00;1.40;;;;;;;19.18;46.21;100246.25;3410491;84;35401;-89
2021/05/26 10:59:13;;;;;;;3.00;1.10;;;;;;;19.40;44.35;100243.72;3406114;84;99086;-92
2021/05/26 11:04:20;;;;;;;4.55;1.20;;;;;;;19.44;44.88;100220.05;3422815;84;34828;-85
2021/05/26 11:09:26;;;;;;;4.15;1.30;;;;;;;19.82;43.81;100211.16;3406537;84;98933;-88
2021/05/26 11:14:31;;;;;;;3.62;1.25;;;;;;;20.14;43.56;100205.41;3407598;84;35824;-87
2021/05/26 11:19:32;;;;;;;6.78;1.72;;;;;;;20.25;40.74;100196.08;3414894;84;34784;-84
2021/05/26 11:24:37;;;;;;;2.90;0.90;;;;;;;20.35;40.52;100192.16;3415919;84;98897;-87
2021/05/26 11:29:38;;;;;;;3.72;1.00;;;;;;;20.55;41.85;100184.29;3420740;84;35305;-88
2021/05/26 11:34:43;;;;;;;4.95;1.20;;;;;;;20.54;41.33;100189.72;3423236;84;99122;-88
2021/05/26 11:39:44;;;;;;;5.78;1.55;;;;;;;20.34;40.36;100175.84;3356617;86;43335;-86
2021/05/26 11:45:08;;;;;;;5.75;1.55;;;;;;;20.39;40.26;100173.88;3389963;86;99228;-85
2021/05/26 11:50:19;;;;;;;9.50;1.40;;;;;;;20.25;40.70;100165.94;3378056;86;35310;-85
2021/05/26 11:55:22;;;;;;;4.05;1.20;;;;;;;19.77;39.79;100178.80;3390742;86;99153;-86
2021/05/26 12:00:29;;;;;;;3.25;1.20;;;;;;;19.78;39.92;100155.25;3398466;86;34902;-83
2021/05/26 12:05:56;;;;;;;4.92;1.00;;;;;;;19.94;39.52;100157.31;3387307;85;98699;-85
2021/05/26 12:10:57;;;;;;;3.00;0.80;;;;;;;19.87;39.68;100152.56;3434147;84;35296;-83
2021/05/26 12:16:02;;;;;;;5.97;1.10;;;;;;;20.05;37.91;100141.63;3484888;83;98985;-84
2021/05/26 12:21:06;;;;;;;7.20;1.65;;;;;;;20.07;37.44;100122.43;3432674;84;34788;-84
2021/05/26 12:26:32;;;;;;;8.63;1.52;;;;;;;20.10;37.03;100120.16;3425331;84;99081;-81
2021/05/26 12:31:35;;;;;;;3.80;0.98;;;;;;;19.77;37.72;100111.17;3371555;85;26527;-85
2021/05/26 12:36:46;;;;;;;4.17;1.05;;;;;;;19.62;38.71;100117.66;3403371;85;99011;-87
2021/05/26 12:41:51;;;;;;;7.75;1.22;;;;;;;19.57;38.14;100129.38;3373085;85;34883;-84
2021/05/26 12:46:56;;;;;;;3.27;1.00;;;;;;;19.83;38.68;100118.40;3370907;85;99118;-87
2021/05/26 12:51:59;;;;;;;8.30;1.80;;;;;;;19.68;38.11;100106.09;3372634;86;34932;-84
2021/05/26 12:57:22;;;;;;;3.85;1.22;;;;;;;19.77;38.93;100114.56;3365682;83;99162;-88
2021/05/26 13:02:38;;;;;;;4.85;1.47;;;;;;;19.62;38.36;100111.44;3379742;86;35345;-85
2021/05/26 13:07:43;;;;;;;;;;;;;;;19.44;39.25;100105.62;3404419;83;99089;-85
2021/05/26 13:12:45;;;;;;;8.75;1.57;;;;;;;19.26;39.30;100117.92;3379867;86;35235;-83
2021/05/26 13:17:46;;;;;;;7.67;1.85;;;;;;;19.10;40.24;100123.55;3373247;85;99227;-83
2021/05/26 13:22:47;;;;;;;4.67;1.30;;;;;;;18.77;40.55;100119.29;3377249;85;34407;-84
2021/05/26 13:27:51;;;;;;;4.53;1.20;;;;;;;18.77;41.55;100125.47;3385562;84;99280;-83
2021/05/26 13:32:53;;;;;;;4.58;1.20;;;;;;;18.62;40.85;100114.52;3480287;83;35348;-83
2021/05/26 13:37:55;;;;;;;5.33;1.25;;;;;;;18.43;41.42;100128.73;3478837;82;98833;-82
2021/05/26 13:42:58;;;;;;;5.90;1.35;;;;;;;18.20;44.37;100151.17;3488920;83;35163;-81
2021/05/26 13:48:05;;;;;;;5.92;1.72;;;;;;;17.74;47.81;100156.25;3489841;82;98564;-82
2021/05/26 13:53:04;;;;;;;5.42;1.32;;;;;;;17.62;49.42;100151.36;3489417;83;34872;-84
2021/05/26 13:58:05;;;;;;;4.17;1.20;;;;;;;17.60;49.92;100139.88;3487830;80;98649;-81
2021/05/26 14:03:07;;;;;;;6.05;1.67;;;;;;;17.64;51.37;100139.17;3492488;83;33753;-84
2021/05/26 14:08:07;;;;;;;7.65;1.50;;;;;;;17.64;51.40;100144.73;3492398;83;98656;-85
2021/05/26 14:13:08;;;;;;;5.28;1.30;;;;;;;17.48;51.19;100148.86;3494983;83;33349;-82
2021/05/26 14:18:09;;;;;;;4.35;1.77;;;;;;;17.56;51.96;100141.33;3483185;82;98858;-83
2021/05/26 14:23:12;;;;;;;4.97;1.60;;;;;;;17.45;52.44;100159.48;3497157;83;26279;-83
2021/05/26 14:28:13;;;;;;;6.22;1.50;;;;;;;17.18;53.98;100183.25;3485228;81;98830;-84
2021/05/26 14:33:13;;;;;;;4.70;1.40;;;;;;;16.94;55.49;100192.83;3546989;81;34131;-80
2021/05/26 14:38:30;;;;;;;5.05;1.57;;;;;;;16.61;56.68;100188.86;3543549;81;98904;-84
2021/05/26 14:43:21;;;;;;;6.65;2.08;;;;;;;16.04;57.81;100191.75;3538011;81;34968;-83
2021/05/26 14:48:22;;;;;;;5.25;1.80;;;;;;;15.84;59.47;100184.49;3533582;81;99175;-84
2021/05/26 14:53:24;;;;;;;4.17;1.40;;;;;;;15.39;61.40;100138.75;3551908;81;34837;-84
2021/05/26 14:58:25;;;;;;;3.55;1.37;;;;;;;15.24;61.65;100133.16;3530828;80;98653;-84
2021/05/26 15:03:26;;;;;;;6.50;1.93;;;;;;;15.25;62.09;100108.39;3549807;81;32976;-84
2021/05/26 15:08:27;;;;;;;5.20;1.80;;;;;;;15.18;62.40;100096.81;3532845;81;98654;-83
2021/05/26 15:13:29;;;;;;;3.67;1.62;;;;;;;15.16;63.08;100089.49;3552839;81;33155;-83
2021/05/26 15:18:29;;;;;;;4.60;1.30;;;;;;;15.22;63.12;100082.31;3539380;81;98775;-83
2021/05/26 15:23:30;;;;;;;3.40;1.30;;;;;;;15.33;62.94;100080.80;3534219;81;26173;-83
2021/05/26 15:28:31;;;;;;;5.97;1.50;;;;;;;15.36;63.25;100076.59;3541310;81;98671;-84
2021/05/26 15:33:32;;;;;;;3.90;1.20;;;;;;;15.43;63.08;100082.02;3547269;81;25807;-83
2021/05/26 15:38:35;;;;;;;5.33;1.30;;;;;;;15.48;63.62;100074.63;3539849;81;98720;-82
2021/05/26 15:43:35;;;;;;;3.63;1.40;;;;;;;15.46;63.56;100063.77;3542485;81;33488;-83
2021/05/26 15:48:37;;;;;;;5.57;1.97;;;;;;;15.43;63.79;100059.84;3531843;81;98888;-83
2021/05/26 15:53:38;;;;;;;4.83;1.43;;;;;;;15.50;63.60;100049.25;3540268;81;27579;-85
2021/05/26 15:58:39;;;;;;;3.50;1.30;;;;;;;15.54;63.36;100047.22;3538594;81;98548;-85
2021/05/26 16:03:40;;;;;;;3.63;1.70;;;;;;;15.55;63.22;100057.91;3547330;81;32784;-84
2021/05/26 16:08:41;;;;;;;4.33;1.70;;;;;;;15.55;63.50;100057.91;3540543;81;98899;-84
2021/05/26 16:13:42;;;;;;;9.60;2.25;;;;;;;15.58;63.45;100057.67;3540731;81;32566;-84
2021/05/26 16:18:43;;;;;;;4.92;1.80;;;;;;;15.53;63.13;100052.59;3537433;81;98902;-84
2021/05/26 16:23:44;;;;;;;7.60;2.47;;;;;;;15.51;63.06;100058.55;3544194;81;29608;-83
2021/05/26 16:28:48;;;;;;;5.33;1.77;;;;;;;15.40;63.54;100062.08;3538441;81;99021;-84
2021/05/26 16:33:52;;;;;;;3.77;1.75;;;;;;;15.26;63.98;100073.33;3545551;81;33023;-83
2021/05/26 16:38:53;;;;;;;7.00;2.60;;;;;;;15.18;64.51;100082.16;3533095;81;98856;-83
2021/05/26 16:43:54;;;;;;;5.90;1.90;;;;;;;14.98;65.61;100094.48;3546519;81;28671;-84
2021/05/26 16:48:55;;;;;;;7.77;1.97;;;;;;;14.89;66.18;100074.78;3529359;81;98849;-86
2021/05/26 16:54:01;;;;;;;9.07;2.17;;;;;;;14.47;68.40;100048.98;3532533;81;26183;-87
2021/05/26 16:58:59;;;;;;;11.97;2.23;;;;;;;14.47;68.40;100048.98;3541235;81;98932;-90
2021/05/26 17:04:00;;;;;;;6.23;2.37;;;;;;;14.55;68.84;100078.16;3545699;81;30579;-86
2021/05/26 17:09:04;;;;;;;8.30;3.10;;;;;;;14.46;69.33;100094.48;3530251;81;98669;-85
2021/05/26 17:14:07;;;;;;;8.33;3.02;;;;;;;14.32;70.55;100098.76;3546122;81;32341;-87
2021/05/26 17:19:08;;;;;;;5.40;1.73;;;;;;;13.99;71.70;100098.03;3539940;81;99207;-84
2021/05/26 17:24:09;;;;;;;7.67;2.37;;;;;;;13.53;71.87;100123.05;3554254;81;26770;-81
2021/05/26 17:29:10;;;;;;;7.47;2.37;;;;;;;13.20;73.94;100130.52;3534325;81;98782;-84
2021/05/26 17:34:10;;;;;;;5.30;1.90;;;;;;;12.72;75.10;100134.98;3538303;81;26426;-86
2021/05/26 17:39:12;;;;;;;5.00;2.00;;;;;;;12.43;76.40;100125.19;3535999;81;98922;-84
2021/05/26 17:44:13;;;;;;;6.27;1.83;;;;;;;12.31;76.79;100123.61;3540603;81;26445;-83
2021/05/26 17:49:18;;;;;;;5.60;1.80;;;;;;;12.23;76.64;100090.91;3542014;81;98550;-82
2021/05/26 17:54:17;;;;;;;5.97;2.43;;;;;;;12.25;76.73;100083.02;3541992;81;27646;-82
2021/05/26 17:59:18;;;;;;;6.13;2.40;;;;;;;12.31;76.86;100082.84;3537566;81;99342;-82
2021/05/26 18:04:19;;;;;;;6.17;2.63;;;;;;;12.34;76.74;100086.97;3548793;81;26337;-83
2021/05/26 18:09:20;;;;;;;8.87;3.40;;;;;;;12.26;77.84;100085.99;3535891;81;99048;-82
2021/05/26 18:14:21;;;;;;;7.47;2.37;;;;;;;12.27;77.77;100092.47;3546321;81;25879;-82
2021/05/26 18:19:21;;;;;;;7.00;3.13;;;;;;;12.30;77.77;100082.61;3529277;81;98875;-83
2021/05/26 18:24:22;;;;;;;7.90;3.07;;;;;;;12.27;78.75;100081.44;3544163;81;26021;-82
2021/05/26 18:29:23;;;;;;;6.42;3.20;;;;;;;12.27;78.21;100076.53;3534570;81;98763;-81
2021/05/26 18:34:24;;;;;;;7.90;3.33;;;;;;;12.22;78.19;100073.55;3491710;83;33222;-82
2021/05/26 18:39:25;;;;;;;6.60;3.03;;;;;;;12.20;78.42;100069.62;3479868;83;99036;-82
2021/05/26 18:44:26;;;;;;;6.30;2.83;;;;;;;12.18;78.33;100064.52;3490218;83;34025;-83
2021/05/26 18:49:26;;;;;;;5.63;2.60;;;;;;;12.17;78.39;100061.57;3478696;82;98726;-83
2021/05/26 18:54:27;;;;;;;6.10;2.53;;;;;;;12.12;78.78;100055.65;3486314;83;33731;-82
2021/05/26 18:59:28;;;;;;;6.43;3.07;;;;;;;12.10;78.89;100062.94;3490407;83;98999;-80
2021/05/26 19:04:29;;;;;;;7.37;3.23;;;;;;;12.06;78.83;100064.13;3483567;81;99094;-80
2021/05/26 19:09:30;;;;;;;11.95;6.42;;;;;;;12.00;79.01;100059.59;3486041;83;33483;-81
2021/05/26 19:14:30;;;;;;;12.30;6.05;;;;;;;11.96;79.01;100064.92;3483928;83;99318;-81
2021/05/26 19:19:32;;;;;;;10.70;3.90;;;;;;;11.92;79.45;100066.88;3490224;83;32196;-81
2021/05/26 19:24:33;;;;;;;7.93;4.03;;;;;;;11.86;79.96;100065.70;3487930;82;99401;-80
2021/05/26 19:29:34;;;;;;;8.30;3.83;;;;;;;11.80;80.00;100066.70;3486874;83;31606;-79
2021/05/26 19:34:37;;;;;;;9.67;3.93;;;;;;;11.77;80.11;100070.23;3540508;81;99042;-79
2021/05/26 19:39:38;;;;;;;9.58;3.83;;;;;;;11.74;80.25;100071.61;3546974;81;33679;-80
2021/05/26 19:44:41;;;;;;;8.80;3.53;;;;;;;11.67;80.51;100060.59;3541643;81;99106;-81
2021/05/26 19:49:42;;;;;;;13.55;5.17;;;;;;;11.62;80.86;100054.09;3542489;81;32679;-80
2021/05/26 19:54:44;;;;;;;9.30;4.90;;;;;;;11.58;81.27;100048.55;3537441;81;99651;-81
2021/05/26 19:59:45;;;;;;;10.45;4.87;;;;;;;11.55;81.22;100039.67;3548724;81;33322;-81
2021/05/26 20:04:46;;;;;;;11.13;5.07;;;;;;;11.52;81.32;100040.47;3534425;81;99397;-82
2021/05/26 20:09:47;;;;;;;10.40;5.47;;;;;;;11.50;81.76;100035.92;3549667;81;31628;-82
2021/05/26 20:14:54;;;;;;;12.53;5.00;;;;;;;11.48;81.79;100031.98;3529293;81;98873;-82
2021/05/26 20:19:50;;;;;;;10.43;4.90;;;;;;;11.43;82.11;100035.92;3532040;81;31675;-82
2021/05/26 20:24:51;;;;;;;12.13;4.87;;;;;;;11.39;81.98;100034.35;3531725;81;99291;-81
2021/05/26 20:29:52;;;;;;;12.00;5.37;;;;;;;11.35;82.44;100036.31;3545778;81;31632;-81
2021/05/26 20:34:53;;;;;;;10.60;5.53;;;;;;;11.28;82.30;100048.70;3472244;82;99414;-81
2021/05/26 20:39:54;;;;;;;11.67;5.17;;;;;;;11.23;82.54;100046.33;3475028;83;31583;-81
2021/05/26 20:44:55;;;;;;;11.43;5.92;;;;;;;11.20;82.85;100053.41;3466649;83;99334;-82
2021/05/26 20:49:55;;;;;;;10.50;6.30;;;;;;;11.15;83.00;100053.78;3480820;83;31659;-81
2021/05/26 20:54:56;;;;;;;13.88;6.12;;;;;;;11.10;83.21;100058.29;3472954;81;99322;-81
2021/05/26 20:59:57;;;;;;;11.77;6.50;;;;;;;11.02;83.12;100046.27;3403411;85;25866;-83
2021/05/26 21:04:57;;;;;;;10.83;6.17;;;;;;;10.96;83.24;100053.33;3345263;86;99360;-82
2021/05/26 21:09:59;;;;;;;11.87;6.90;;;;;;;10.90;83.64;100056.27;3348779;86;26051;-82
2021/05/26 21:14:59;;;;;;;15.28;6.37;;;;;;;10.81;83.45;100058.00;3391026;85;99388;-82
2021/05/26 21:20:01;;;;;;;12.27;6.13;;;;;;;10.76;83.84;100060.31;3394573;85;35254;-82
2021/05/26 21:25:02;;;;;;;14.07;6.70;;;;;;;10.69;84.13;100045.16;3344344;86;99322;-82
2021/05/26 21:30:07;;;;;;;10.63;6.47;;;;;;;10.59;84.17;100046.70;3410164;85;34831;-82
2021/05/26 21:35:13;;;;;;;11.08;5.53;;;;;;;10.53;84.35;100058.45;3398370;85;99126;-82
2021/05/26 21:40:15;;;;;;;10.65;6.62;;;;;;;10.48;84.60;100049.95;3437235;84;30037;-82
2021/05/26 21:45:16;;;;;;;15.50;9.58;;;;;;;10.38;84.73;100040.28;3436910;84;98858;-82
2021/05/26 21:50:17;;;;;;;18.90;11.00;;;;;;;10.31;85.02;100039.64;3441627;84;26427;-82
2021/05/26 21:55:18;;;;;;;13.63;7.57;;;;;;;10.22;85.36;100040.59;3436532;84;99338;-82
2021/05/26 22:00:29;;;;;;;14.77;9.37;;;;;;;10.16;85.55;100038.58;3438355;84;34959;-82
2021/05/26 22:05:31;;;;;;;11.10;6.87;;;;;;;10.04;85.94;100023.17;3429369;84;99134;-82
2021/05/26 22:10:32;;;;;;;12.85;7.12;;;;;;;9.99;85.96;100019.41;3439090;84;31759;-82
2021/05/26 22:15:33;;;;;;;9.93;6.45;;;;;;;9.96;86.11;100015.22;3424684;84;98720;-83
2021/05/26 22:20:35;;;;;;;12.53;6.00;;;;;;;9.95;86.08;100019.16;3445945;84;26745;-82
2021/05/26 22:25:35;;;;;;;11.63;6.43;;;;;;;9.90;86.16;100014.81;3432069;83;99133;-82
2021/05/26 22:30:37;;;;;;;15.33;7.97;;;;;;;9.84;86.95;100006.72;3438862;84;34872;-82
2021/05/26 22:35:38;;;;;;;13.87;8.00;;;;;;;9.78;87.09;100014.31;3418803;84;99147;-82
2021/05/26 22:40:39;;;;;;;10.53;6.80;;;;;;;9.72;86.98;100008.98;3439160;84;34836;-81
2021/05/26 22:45:52;;;;;;;17.30;8.90;;;;;;;9.71;87.04;100006.03;3428441;84;98825;-81
2021/05/26 22:50:51;;;;;;;13.87;7.80;;;;;;;9.71;87.51;100001.91;3431559;84;27901;-81
2021/05/26 22:55:52;;;;;;;15.80;8.47;;;;;;;9.69;88.13;99998.73;3431348;84;98973;-82
2021/05/26 23:00:54;;;;;;;14.00;7.97;;;;;;;9.71;88.33;99992.29;3437689;84;35297;-82
2021/05/26 23:06:05;;;;;;;12.65;6.70;;;;;;;9.73;88.57;99998.98;3419615;83;98655;-83
2021/05/26 23:11:07;;;;;;;11.97;5.83;;;;;;;9.79;89.28;99987.03;3432940;84;28416;-82
2021/05/26 23:16:08;;;;;;;10.63;5.30;;;;;;;9.85;88.95;99984.94;3424114;84;99001;-82
2021/05/26 23:21:09;;;;;;;12.47;5.50;;;;;;;9.91;88.89;99979.84;3439439;84;25924;-82
2021/05/26 23:26:10;;;;;;;9.93;4.90;;;;;;;9.98;88.73;99975.80;3434445;84;98863;-82
2021/05/26 23:31:11;;;;;;;10.00;4.87;;;;;;;10.02;88.47;99974.63;3425598;84;34867;-82